createdAt,value
2023-02-26T00:01:19.861Z,20.00
2023-02-26T00:03:51.110Z,15.33
2023-02-26T00:06:18.488Z,15.00
2023-02-26T00:08:45.399Z,18.67
2023-02-26T00:11:13.151Z,15.33
2023-02-26T00:13:42.658Z,33.00
2023-02-26T00:16:31.202Z,15.33
2023-02-26T00:19:00.453Z,9.00
2023-02-26T00:21:28.274Z,15.67
2023-02-26T00:23:55.535Z,12.33
2023-02-26T00:26:24.068Z,17.33
2023-02-26T00:28:51.106Z,13.33
2023-02-26T00:31:21.110Z,12.00
2023-02-26T00:33:48.304Z,13.33
2023-02-26T00:36:30.056Z,13.00
2023-02-26T00:39:34.423Z,14.67
2023-02-26T00:42:01.453Z,13.00
2023-02-26T00:44:28.561Z,14.00
2023-02-26T00:47:03.438Z,14.33
2023-02-26T00:49:42.239Z,13.33
2023-02-26T00:52:18.412Z,18.67
2023-02-26T00:54:45.213Z,14.33
2023-02-26T00:57:14.824Z,10.67
2023-02-26T00:59:43.373Z,19.33
2023-02-26T01:02:10.136Z,9.33
2023-02-26T01:04:37.367Z,15.00
2023-02-26T01:07:04.395Z,10.33
2023-02-26T01:09:33.861Z,12.33
2023-02-26T01:12:03.872Z,12.00
2023-02-26T01:14:32.655Z,13.00
2023-02-26T01:17:23.341Z,10.00
2023-02-26T01:19:53.005Z,14.00
2023-02-26T01:22:25.608Z,6.67
2023-02-26T01:25:01.715Z,9.00
2023-02-26T01:27:28.710Z,10.33
2023-02-26T01:29:55.801Z,7.33
2023-02-26T01:32:35.868Z,8.00
2023-02-26T01:35:13.538Z,11.33
2023-02-26T01:38:09.891Z,9.00
2023-02-26T01:41:02.858Z,7.00
2023-02-26T01:43:40.244Z,13.67
2023-02-26T01:46:10.116Z,7.00
2023-02-26T01:48:53.833Z,7.00
2023-02-26T01:51:53.863Z,8.00
2023-02-26T01:54:28.500Z,10.33
2023-02-26T01:57:11.277Z,10.33
2023-02-26T01:59:46.239Z,2.67
2023-02-26T02:02:17.729Z,6.00
2023-02-26T02:04:45.730Z,7.00
2023-02-26T02:07:12.464Z,7.67
2023-02-26T02:09:39.424Z,4.67
2023-02-26T02:12:21.392Z,4.33
2023-02-26T02:14:59.888Z,6.00
2023-02-26T02:17:54.126Z,7.00
2023-02-26T02:20:29.977Z,6.00
2023-02-26T02:23:19.768Z,4.00
2023-02-26T02:25:55.263Z,4.33
2023-02-26T02:28:40.018Z,7.67
2023-02-26T02:31:42.144Z,7.00
2023-02-26T02:34:18.454Z,8.67
2023-02-26T02:37:05.404Z,12.33
2023-02-26T02:39:47.353Z,13.67
2023-02-26T02:42:14.133Z,18.67
2023-02-26T02:44:46.055Z,15.67
2023-02-26T02:47:17.237Z,17.25
2023-02-26T02:49:50.279Z,15.00
2023-02-26T02:52:26.553Z,3.00
2023-02-26T02:55:07.186Z,6.00
2023-02-26T02:57:39.725Z,4.00
2023-02-26T03:00:11.204Z,6.00
2023-02-26T03:02:41.600Z,9.00
2023-02-26T03:05:08.709Z,7.33
2023-02-26T03:07:43.705Z,7.67
2023-02-26T03:10:11.716Z,7.00
2023-02-26T03:12:38.574Z,7.00
2023-02-26T03:15:06.013Z,7.67
2023-02-26T03:17:43.149Z,6.67
2023-02-26T03:20:28.079Z,8.67
2023-02-26T03:23:19.779Z,30.75
2023-02-26T03:25:56.708Z,23.75
2023-02-26T03:28:40.007Z,21.67
2023-02-26T03:31:10.513Z,12.33
2023-02-26T03:33:52.988Z,12.33
2023-02-26T03:36:29.652Z,7.33
2023-02-26T03:39:31.992Z,5.33
2023-02-26T03:42:10.069Z,6.00
2023-02-26T03:45:10.746Z,6.67
2023-02-26T03:47:41.312Z,3.00
2023-02-26T03:50:14.082Z,6.00
2023-02-26T03:52:50.762Z,8.67
2023-02-26T03:55:39.113Z,7.00
2023-02-26T03:58:18.473Z,7.00
2023-02-26T04:01:20.974Z,6.00
2023-02-26T04:04:00.957Z,7.00
2023-02-26T04:06:28.705Z,6.67
2023-02-26T04:08:58.210Z,7.00
2023-02-26T04:11:25.973Z,7.00
2023-02-26T04:13:52.911Z,10.33
2023-02-26T04:16:19.793Z,19.50
2023-02-26T04:18:46.709Z,13.00
2023-02-26T04:21:15.699Z,16.00
2023-02-26T04:23:43.271Z,18.75
2023-02-26T04:26:10.226Z,11.00
2023-02-26T04:28:40.693Z,6.00
2023-02-26T04:31:10.434Z,7.00
2023-02-26T04:33:37.871Z,14.33
2023-02-26T04:36:05.379Z,13.00
2023-02-26T04:38:32.413Z,8.00
2023-02-26T04:40:59.598Z,8.00
2023-02-26T04:43:26.536Z,6.67
2023-02-26T04:46:11.728Z,13.67
2023-02-26T04:48:38.548Z,16.75
2023-02-26T04:51:05.489Z,7.00
2023-02-26T04:53:33.163Z,8.67
2023-02-26T04:55:59.964Z,6.00
2023-02-26T04:58:26.992Z,6.33
2023-02-26T05:00:57.854Z,6.67
2023-02-26T05:03:25.855Z,9.00
2023-02-26T05:05:52.679Z,13.00
2023-02-26T05:08:19.517Z,9.33
2023-02-26T05:10:46.504Z,9.00
2023-02-26T05:13:13.540Z,7.00
2023-02-26T05:15:40.919Z,11.33
2023-02-26T05:18:07.730Z,11.00
2023-02-26T05:20:34.527Z,4.00
2023-02-26T05:23:01.502Z,6.00
2023-02-26T05:25:28.344Z,2.00
2023-02-26T05:27:55.860Z,4.67
2023-02-26T05:30:23.385Z,3.00
2023-02-26T05:32:50.202Z,4.00
2023-02-26T05:35:17.168Z,3.00
2023-02-26T05:37:43.951Z,5.00
2023-02-26T05:40:11.317Z,3.00
2023-02-26T05:42:38.968Z,4.00
2023-02-26T05:45:07.172Z,4.33
2023-02-26T05:47:35.138Z,2.00
2023-02-26T05:50:02.286Z,4.00
2023-02-26T05:52:29.061Z,4.00
2023-02-26T05:54:56.184Z,4.67
2023-02-26T05:57:24.493Z,2.67
2023-02-26T05:59:51.472Z,3.00
2023-02-26T06:02:18.376Z,15.50
2023-02-26T06:04:45.474Z,10.33
2023-02-26T06:07:12.266Z,7.00
2023-02-26T06:09:39.216Z,8.33
2023-02-26T06:12:06.740Z,3.00
2023-02-26T06:14:34.133Z,0.00
2023-02-26T06:17:00.985Z,2.00
2023-02-26T06:19:27.732Z,2.33
2023-02-26T06:21:54.752Z,3.00
2023-02-26T06:24:21.823Z,10.33
2023-02-26T06:26:48.656Z,14.50
2023-02-26T06:29:18.330Z,9.33
2023-02-26T06:31:45.749Z,1.00
2023-02-26T06:34:12.759Z,3.00
2023-02-26T06:36:39.698Z,11.75
2023-02-26T06:39:08.077Z,13.50
2023-02-26T06:41:35.114Z,17.50
2023-02-26T06:44:02.052Z,3.00
2023-02-26T06:46:28.847Z,6.00
2023-02-26T06:48:55.740Z,1.00
2023-02-26T06:51:22.613Z,2.00
2023-02-26T06:53:49.567Z,3.00
2023-02-26T06:56:16.518Z,14.25
2023-02-26T06:58:43.288Z,2.67
2023-02-26T07:01:10.563Z,38.50
2023-02-26T07:03:37.553Z,21.50
2023-02-26T07:06:25.992Z,22.50
2023-02-26T07:08:54.957Z,14.75
2023-02-26T07:11:22.221Z,9.25
2023-02-26T07:13:51.505Z,6.25
2023-02-26T07:16:18.388Z,10.25
2023-02-26T07:18:45.371Z,23.50
2023-02-26T07:21:12.170Z,31.25
2023-02-26T07:23:39.148Z,36.75
2023-02-26T07:26:05.971Z,50.75
2023-02-26T07:28:32.718Z,54.75
2023-02-26T07:30:59.698Z,56.75
2023-02-26T07:33:28.458Z,75.50
2023-02-26T07:35:55.346Z,69.00
2023-02-26T07:38:22.140Z,59.75
2023-02-26T07:40:49.241Z,66.75
2023-02-26T07:43:16.026Z,73.50
2023-02-26T07:45:42.769Z,79.00
2023-02-26T07:48:09.616Z,47.00
2023-02-26T07:50:36.394Z,58.00
2023-02-26T07:53:03.382Z,50.75
2023-02-26T07:55:30.338Z,47.50
2023-02-26T07:57:57.120Z,58.75
2023-02-26T08:00:24.010Z,62.75
2023-02-26T08:02:50.883Z,70.75
2023-02-26T08:05:18.055Z,130.50
2023-02-26T08:07:44.970Z,153.75
2023-02-26T08:10:12.127Z,92.00
2023-02-26T08:12:39.122Z,79.25
2023-02-26T08:15:06.604Z,86.25
2023-02-26T08:17:34.052Z,102.75
2023-02-26T08:20:01.016Z,82.75
2023-02-26T08:22:27.796Z,96.25
2023-02-26T08:24:54.523Z,103.50
2023-02-26T08:27:21.320Z,100.25
2023-02-26T08:29:50.326Z,103.50
2023-02-26T08:32:19.846Z,130.00
2023-02-26T08:34:47.068Z,119.75
2023-02-26T08:37:14.283Z,121.50
2023-02-26T08:39:41.661Z,143.25
2023-02-26T08:42:10.078Z,120.75
2023-02-26T08:44:37.070Z,110.75
2023-02-26T08:47:03.975Z,109.25
2023-02-26T08:49:30.821Z,93.00
2023-02-26T08:51:57.861Z,110.75
2023-02-26T08:54:25.052Z,115.75
2023-02-26T08:56:53.540Z,150.50
2023-02-26T08:59:20.336Z,146.75
2023-02-26T09:01:50.489Z,153.25
2023-02-26T09:04:17.992Z,186.00
2023-02-26T09:06:44.731Z,192.25
2023-02-26T09:09:11.565Z,184.50
2023-02-26T09:11:38.394Z,184.25
2023-02-26T09:14:05.701Z,221.25
2023-02-26T09:16:35.563Z,208.25
2023-02-26T09:19:04.378Z,159.75
2023-02-26T09:21:32.004Z,190.75
2023-02-26T09:23:58.880Z,209.00
2023-02-26T09:26:25.939Z,202.50
2023-02-26T09:28:52.994Z,116.75
2023-02-26T09:31:19.915Z,102.00
2023-02-26T09:33:46.715Z,88.00
2023-02-26T09:36:13.574Z,85.00
2023-02-26T09:38:41.392Z,89.50
2023-02-26T09:41:34.190Z,99.25
2023-02-26T09:44:15.704Z,103.25
2023-02-26T09:47:02.131Z,119.50
2023-02-26T09:49:51.943Z,118.75
2023-02-26T09:52:25.089Z,149.50
2023-02-26T09:54:56.904Z,240.75
2023-02-26T09:57:34.393Z,190.50
2023-02-26T10:00:04.861Z,143.75
2023-02-26T10:02:52.393Z,164.75
2023-02-26T10:05:47.163Z,162.50
2023-02-26T10:08:18.951Z,152.00
2023-02-26T10:10:54.773Z,140.50
2023-02-26T10:14:01.125Z,205.25
2023-02-26T10:16:33.383Z,222.00
2023-02-26T10:19:17.164Z,222.50
2023-02-26T10:21:46.767Z,307.00
2023-02-26T10:24:19.718Z,112.75
2023-02-26T10:27:11.049Z,60.75
2023-02-26T10:29:47.174Z,101.75
2023-02-26T10:32:37.883Z,109.50
2023-02-26T10:35:12.399Z,136.50
2023-02-26T10:37:59.147Z,102.50
2023-02-26T10:41:04.251Z,115.50
2023-02-26T10:43:49.048Z,132.75
2023-02-26T10:46:30.027Z,65.25
2023-02-26T10:49:38.009Z,101.25
2023-02-26T10:52:26.993Z,89.75
2023-02-26T10:54:59.527Z,82.00
2023-02-26T10:57:35.227Z,106.50
2023-02-26T11:00:05.300Z,131.50
2023-02-26T11:02:39.304Z,128.25
2023-02-26T11:05:13.705Z,126.75
2023-02-26T11:07:41.873Z,94.50
2023-02-26T11:10:20.317Z,89.50
2023-02-26T11:12:47.656Z,65.50
2023-02-26T11:15:17.118Z,62.75
2023-02-26T11:17:45.556Z,77.25
2023-02-26T11:20:24.956Z,84.25
2023-02-26T11:22:56.596Z,75.25
2023-02-26T11:25:30.616Z,136.25
2023-02-26T11:28:05.235Z,136.75
2023-02-26T11:30:37.407Z,62.50
2023-02-26T11:33:44.610Z,38.75
2023-02-26T11:36:23.834Z,73.75
2023-02-26T11:39:01.031Z,62.00
2023-02-26T11:41:29.132Z,71.50
2023-02-26T11:44:18.705Z,63.00
2023-02-26T11:46:53.642Z,68.50
2023-02-26T11:49:24.429Z,126.75
2023-02-26T11:52:40.848Z,83.00
2023-02-26T11:55:40.056Z,90.50
2023-02-26T11:58:18.724Z,81.75
2023-02-26T12:00:46.631Z,65.00
2023-02-26T12:03:22.678Z,70.25
2023-02-26T12:05:50.921Z,71.50
2023-02-26T12:08:25.061Z,80.75
2023-02-26T12:11:00.848Z,60.50
2023-02-26T12:13:47.180Z,55.00
2023-02-26T12:16:34.281Z,61.50
2023-02-26T12:19:23.712Z,49.50
2023-02-26T12:22:40.667Z,52.50
2023-02-26T12:25:22.322Z,49.25
2023-02-26T12:28:21.221Z,69.75
2023-02-26T12:30:53.858Z,66.50
2023-02-26T12:33:53.065Z,61.25
2023-02-26T12:36:31.665Z,99.50
2023-02-26T12:39:16.770Z,64.00
2023-02-26T12:42:01.678Z,49.00
2023-02-26T12:44:46.758Z,30.75
2023-02-26T12:47:25.385Z,39.50
2023-02-26T12:50:16.629Z,55.50
2023-02-26T12:52:58.083Z,60.00
2023-02-26T12:55:39.676Z,75.50
2023-02-26T12:58:16.016Z,74.25
2023-02-26T13:01:06.154Z,62.25
2023-02-26T13:03:43.162Z,47.75
2023-02-26T13:06:37.789Z,44.00
2023-02-26T13:09:38.813Z,58.75
2023-02-26T13:12:09.727Z,58.25
2023-02-26T13:14:49.019Z,56.25
2023-02-26T13:17:28.296Z,58.50
2023-02-26T13:20:02.675Z,56.50
2023-02-26T13:22:35.746Z,62.50
2023-02-26T13:25:06.501Z,60.25
2023-02-26T13:27:37.649Z,90.00
2023-02-26T13:30:26.006Z,82.25
2023-02-26T13:32:56.915Z,62.00
2023-02-26T13:35:38.244Z,84.75
2023-02-26T13:38:28.349Z,80.50
2023-02-26T13:41:01.105Z,76.00
2023-02-26T13:43:34.911Z,132.25
2023-02-26T13:46:07.912Z,97.75
2023-02-26T13:48:56.444Z,67.75
2023-02-26T13:51:30.852Z,101.75
2023-02-26T13:54:08.951Z,84.25
2023-02-26T13:56:35.777Z,76.50
2023-02-26T13:59:16.410Z,79.25
2023-02-26T14:01:54.467Z,77.75
2023-02-26T14:04:22.473Z,101.50
2023-02-26T14:06:54.402Z,108.25
2023-02-26T14:09:23.929Z,100.50
2023-02-26T14:12:22.843Z,117.00
2023-02-26T14:14:58.433Z,148.25
2023-02-26T14:18:00.935Z,158.25
2023-02-26T14:20:30.544Z,168.00
2023-02-26T14:23:10.052Z,184.50
2023-02-26T14:25:48.856Z,207.50
2023-02-26T14:28:28.194Z,208.25
2023-02-26T14:31:06.949Z,201.00
2023-02-26T14:33:59.828Z,216.50
2023-02-26T14:36:57.398Z,236.75
2023-02-26T14:39:33.484Z,257.75
2023-02-26T14:42:08.272Z,240.75
2023-02-26T14:44:40.215Z,261.75
2023-02-26T14:47:07.823Z,281.00
2023-02-26T14:49:38.455Z,328.50
2023-02-26T14:52:33.051Z,319.50
2023-02-26T14:55:16.807Z,246.00
2023-02-26T14:58:00.001Z,256.25
2023-02-26T15:00:39.962Z,226.00
2023-02-26T15:03:07.030Z,226.75
2023-02-26T15:06:11.649Z,221.50
2023-02-26T15:08:57.317Z,242.00
2023-02-26T15:11:51.585Z,226.50
2023-02-26T15:14:52.175Z,276.50
2023-02-26T15:17:40.531Z,271.50
2023-02-26T15:20:30.112Z,281.50
2023-02-26T15:23:12.962Z,314.50
2023-02-26T15:25:43.404Z,334.25
2023-02-26T15:28:27.021Z,346.75
2023-02-26T15:30:54.349Z,316.00
2023-02-26T15:33:23.450Z,319.25
2023-02-26T15:35:52.206Z,299.75
2023-02-26T15:38:19.480Z,347.00
2023-02-26T15:40:48.483Z,366.40
2023-02-26T15:43:20.407Z,372.40
2023-02-26T15:45:49.237Z,346.00
2023-02-26T15:48:22.189Z,314.75
2023-02-26T15:50:54.624Z,247.50
2023-02-26T15:53:31.702Z,243.00
2023-02-26T15:56:02.312Z,292.50
2023-02-26T15:58:35.020Z,326.50
2023-02-26T16:01:04.059Z,331.75
2023-02-26T16:03:37.228Z,339.50
2023-02-26T16:06:04.554Z,345.80
2023-02-26T16:08:31.684Z,350.33
2023-02-26T16:11:00.919Z,352.00
2023-02-26T16:13:31.880Z,331.25
2023-02-26T16:16:02.861Z,321.75
2023-02-26T16:18:32.692Z,305.50
2023-02-26T16:21:02.077Z,303.25
2023-02-26T16:23:41.699Z,301.25
2023-02-26T16:26:13.474Z,302.50
2023-02-26T16:28:45.906Z,295.75
2023-02-26T16:31:22.049Z,261.00
2023-02-26T16:34:01.822Z,283.00
2023-02-26T16:36:46.939Z,202.25
2023-02-26T16:39:20.793Z,213.50
2023-02-26T16:42:00.700Z,246.25
2023-02-26T16:44:30.183Z,192.75
2023-02-26T16:46:57.797Z,205.50
2023-02-26T16:49:32.270Z,211.50
2023-02-26T16:52:00.999Z,182.75
2023-02-26T16:54:43.230Z,210.00
2023-02-26T16:57:29.995Z,282.75
2023-02-26T17:00:01.380Z,303.75
2023-02-26T17:02:33.309Z,347.25
2023-02-26T17:05:05.681Z,347.00
2023-02-26T17:07:34.988Z,404.50
2023-02-26T17:10:16.525Z,377.50
2023-02-26T17:12:46.374Z,396.60
2023-02-26T17:15:21.130Z,410.25
2023-02-26T17:17:48.706Z,485.00
2023-02-26T17:20:15.768Z,488.60
2023-02-26T17:22:44.903Z,433.50
2023-02-26T17:25:20.933Z,411.80
2023-02-26T17:27:49.102Z,360.00
2023-02-26T17:30:20.659Z,344.00
2023-02-26T17:32:47.769Z,362.75
2023-02-26T17:35:19.247Z,279.75
2023-02-26T17:37:47.213Z,335.00
2023-02-26T17:40:19.679Z,333.00
2023-02-26T18:43:36.275Z,245.00
2023-02-26T18:46:03.119Z,311.50
2023-02-26T18:48:29.950Z,195.50
2023-02-26T18:50:56.804Z,199.00
2023-02-26T18:53:23.878Z,199.25
2023-02-26T18:55:52.825Z,188.25
2023-02-26T19:49:29.998Z,207.75
2023-02-26T19:51:56.962Z,202.75
2023-02-26T19:54:23.850Z,199.25
2023-02-26T19:56:51.012Z,198.00
2023-02-26T19:59:19.326Z,210.25
2023-02-26T20:01:49.376Z,176.75
2023-02-26T20:04:17.421Z,220.00
2023-02-26T20:06:45.058Z,264.50
2023-02-26T20:09:12.767Z,229.50
2023-02-26T20:11:39.688Z,236.00
2023-02-26T20:14:07.070Z,265.00
2023-02-26T20:16:34.061Z,264.00
2023-02-26T20:19:01.098Z,258.25
2023-02-26T20:21:28.588Z,260.00
2023-02-26T20:23:56.864Z,241.25
2023-02-26T20:26:24.450Z,266.50
2023-02-26T20:28:51.403Z,278.75
2023-02-26T20:31:18.724Z,258.00
2023-02-26T20:33:45.834Z,263.25
2023-02-26T20:36:12.716Z,251.25
2023-02-26T20:38:39.608Z,247.50
2023-02-26T20:41:06.809Z,212.50
2023-02-26T20:43:33.769Z,241.75
2023-02-26T21:35:28.973Z,134.25
2023-02-26T21:37:55.785Z,142.00
2023-02-26T21:40:22.890Z,143.75
2023-02-26T21:42:49.734Z,137.50
2023-02-26T21:45:16.770Z,137.75
2023-02-26T21:47:43.582Z,118.00
2023-02-26T21:50:10.973Z,151.75
2023-02-26T21:52:37.713Z,169.25
2023-02-26T21:55:04.858Z,166.75
2023-02-26T21:57:31.912Z,136.25
2023-02-26T21:59:58.762Z,130.75
2023-02-26T22:02:25.688Z,123.75
2023-02-26T22:04:52.523Z,95.25
2023-02-26T22:07:19.948Z,86.50
2023-02-26T22:09:48.902Z,90.25
2023-02-26T22:12:17.258Z,100.25
2023-02-26T22:14:44.233Z,95.50
2023-02-26T22:17:11.980Z,89.00
2023-02-26T22:19:38.729Z,61.25
2023-02-26T22:22:05.593Z,62.25
2023-02-26T22:24:32.702Z,64.00
2023-02-26T22:26:59.443Z,65.50
2023-02-26T22:29:26.190Z,83.75
2023-02-26T22:31:54.060Z,71.00
2023-02-26T22:34:21.024Z,67.00
2023-02-26T22:36:48.005Z,66.25
2023-02-26T22:39:15.800Z,59.00
2023-02-26T22:41:42.546Z,64.00
2023-02-26T22:44:09.381Z,52.50
2023-02-26T22:46:36.283Z,54.00
2023-02-26T22:49:03.364Z,50.00
2023-02-26T22:51:32.346Z,54.25
2023-02-26T22:54:00.853Z,56.25
2023-02-26T22:56:28.326Z,85.75
2023-02-26T22:58:55.366Z,61.75
2023-02-26T23:01:22.237Z,55.75
2023-02-26T23:03:49.044Z,59.25
2023-02-26T23:06:16.163Z,58.25
2023-02-26T23:08:42.930Z,58.25
2023-02-26T23:11:09.696Z,48.25
2023-02-26T23:13:36.723Z,48.50
2023-02-26T23:16:06.143Z,54.00
2023-02-26T23:18:34.299Z,44.50
2023-02-26T23:21:01.063Z,52.25
2023-02-26T23:23:27.815Z,50.50
2023-02-26T23:25:55.156Z,57.75
2023-02-26T23:28:24.259Z,59.50
2023-02-26T23:30:52.156Z,60.00
2023-02-26T23:33:19.012Z,49.50
2023-02-26T23:35:45.813Z,45.50
2023-02-26T23:38:12.623Z,39.25
2023-02-26T23:40:39.371Z,48.75
2023-02-26T23:43:06.124Z,32.00
2023-02-26T23:45:32.895Z,24.50
2023-02-26T23:47:59.718Z,28.00
2023-02-26T23:50:26.468Z,42.25
2023-02-26T23:52:53.310Z,50.75
2023-02-26T23:55:20.068Z,36.50
2023-02-26T23:57:46.983Z,33.25
